Time;durP1;ratioP1;P1;durP2;ratioP2;P2;SDS_P1;SDS_P2;PMS_P1;PMS_P2;Temp;Humidity;BMP_temperature;BMP_pressure;BME280_temperature;BME280_humidity;BME280_pressure;Samples;Min_cycle;Max_cycle;Signal;HPM_P1;HPM_P2
2021/12/14 00:01:45;;;;;;;18.30;11.40;;;8.50;99.90;;;;;;5092012;28;20086;-79
2021/12/14 00:04:17;;;;;;;16.55;10.32;;;8.50;99.90;;;;;;5074661;28;20036;-79
2021/12/14 00:06:46;;;;;;;19.08;11.25;;;8.50;99.90;;;;;;5091814;28;20067;-81
2021/12/14 00:09:22;;;;;;;20.15;11.50;;;9.00;99.90;;;;;;5074617;28;20511;-78
2021/12/14 00:12:06;;;;;;;17.30;11.23;;;8.50;99.90;;;;;;5091149;28;20036;-79
2021/12/14 00:17:10;;;;;;;16.92;10.20;;;8.60;99.90;;;;;;5091021;28;20063;-79
2021/12/14 00:19:36;;;;;;;20.40;12.35;;;8.40;99.90;;;;;;5091483;28;20495;-79
2021/12/14 00:22:17;;;;;;;17.00;11.23;;;8.50;99.90;;;;;;5091101;28;20051;-79
2021/12/14 00:24:42;;;;;;;16.83;10.18;;;8.40;99.90;;;;;;5074609;28;20036;-79
2021/12/14 00:27:11;;;;;;;18.67;10.95;;;9.50;99.90;;;;;;5090206;28;20059;-79
2021/12/14 00:29:43;;;;;;;16.17;10.77;;;10.00;99.90;;;;;;5091692;28;20074;-79
2021/12/14 00:32:14;;;;;;;20.45;11.73;;;8.40;99.90;;;;;;5090784;28;20036;-78
2021/12/14 00:34:42;;;;;;;18.52;12.35;;;;;;;;;;5074346;28;20062;-78
2021/12/14 00:37:24;;;;;;;19.23;11.70;;;8.50;99.90;;;;;;5090689;28;20062;-78
2021/12/14 00:39:52;;;;;;;18.02;10.68;;;8.50;99.90;;;;;;5091308;28;20442;-77
2021/12/14 00:42:18;;;;;;;19.63;12.30;;;8.30;99.90;;;;;;5090893;28;20147;-77
2021/12/14 00:44:45;;;;;;;17.63;12.38;;;8.40;99.90;;;;;;5074442;28;20044;-78
2021/12/14 00:47:11;;;;;;;18.15;11.52;;;8.50;99.90;;;;;;5090812;28;20040;-78
2021/12/14 00:49:38;;;;;;;20.23;12.38;;;8.30;99.90;;;;;;5074332;28;20123;-78
2021/12/14 00:52:05;;;;;;;18.63;12.20;;;9.30;99.90;;;;;;5090656;28;20067;-78
2021/12/14 00:54:31;;;;;;;22.05;13.40;;;8.50;99.90;;;;;;5074246;28;20036;-79
2021/12/14 00:56:57;;;;;;;22.35;12.98;;;11.10;99.90;;;;;;5090695;28;20050;-78
2021/12/14 00:59:24;;;;;;;22.20;12.40;;;8.30;99.90;;;;;;5091415;28;20431;-77
2021/12/14 01:02:00;;;;;;;25.25;14.60;;;11.20;99.90;;;;;;5091029;28;20056;-77
2021/12/14 01:04:36;;;;;;;18.33;12.95;;;8.40;99.90;;;;;;5090966;28;20190;-77
2021/12/14 01:07:05;;;;;;;21.33;13.27;;;8.00;99.90;;;;;;5073710;28;20043;-77
2021/12/14 01:09:36;;;;;;;18.27;13.05;;;10.50;99.90;;;;;;5090961;28;20074;-77
2021/12/14 01:12:09;;;;;;;18.92;12.23;;;8.40;99.90;;;;;;5090535;28;20047;-77
2021/12/14 01:15:11;;;;;;;21.83;13.65;;;8.30;99.90;;;;;;5091154;28;20430;-77
2021/12/14 01:18:00;;;;;;;24.67;13.73;;;;;;;;;;5091104;28;20130;-77
2021/12/14 01:20:35;;;;;;;20.30;13.15;;;8.30;99.90;;;;;;5074138;28;20051;-79
2021/12/14 01:23:02;;;;;;;20.75;14.80;;;10.40;99.90;;;;;;5090712;28;20044;-80
2021/12/14 01:25:34;;;;;;;24.77;14.68;;;9.90;99.90;;;;;;5090547;28;20528;-80
2021/12/14 01:28:02;;;;;;;21.20;13.77;;;9.40;99.90;;;;;;5090004;28;20056;-77
2021/12/14 01:30:32;;;;;;;21.73;13.32;;;11.50;99.90;;;;;;5092391;28;20067;-78
2021/12/14 01:33:04;;;;;;;18.65;13.18;;;9.70;99.90;;;;;;5094254;28;20362;-79
2021/12/14 01:35:37;;;;;;;21.25;14.45;;;8.30;99.90;;;;;;5094695;28;20067;-79
2021/12/14 01:38:17;;;;;;;21.33;15.23;;;8.10;99.90;;;;;;5093893;28;20544;-78
2021/12/14 01:40:53;;;;;;;21.95;14.30;;;11.70;99.90;;;;;;5094125;28;20043;-78
2021/12/14 01:43:42;;;;;;;22.40;15.27;;;8.30;99.90;;;;;;5094503;28;20055;-78
2021/12/14 01:46:17;;;;;;;22.83;14.30;;;10.50;99.90;;;;;;5093430;28;20101;-79
2021/12/14 01:48:44;;;;;;;24.33;14.05;;;8.30;99.90;;;;;;5094072;28;20046;-78
2021/12/14 01:51:11;;;;;;;24.23;15.70;;;10.70;99.90;;;;;;5093690;28;20530;-77
2021/12/14 01:53:41;;;;;;;26.55;15.20;;;10.90;99.90;;;;;;5076872;28;20131;-77
2021/12/14 01:56:10;;;;;;;22.27;14.95;;;8.30;99.90;;;;;;5093151;28;20028;-77
2021/12/14 01:58:44;;;;;;;20.92;14.60;;;8.30;99.90;;;;;;5077389;28;20065;-77
2021/12/14 02:01:16;;;;;;;21.55;13.75;;;8.20;99.90;;;;;;5076442;28;20079;-76
2021/12/14 02:03:47;;;;;;;22.00;13.65;;;9.00;99.90;;;;;;5093832;28;20118;-76
2021/12/14 02:06:19;;;;;;;19.75;13.63;;;10.90;99.90;;;;;;5093532;28;20131;-76
2021/12/14 02:08:46;;;;;;;22.75;15.60;;;8.30;99.90;;;;;;5093767;28;20079;-77
2021/12/14 02:11:12;;;;;;;22.17;15.80;;;8.30;99.90;;;;;;5093392;28;20032;-77
2021/12/14 02:13:43;;;;;;;19.08;13.38;;;8.70;99.90;;;;;;5077068;28;20086;-77
2021/12/14 02:16:15;;;;;;;22.92;14.93;;;8.40;99.90;;;;;;5093200;28;20040;-77
2021/12/14 02:18:52;;;;;;;21.98;15.55;;;10.70;99.90;;;;;;5080461;28;20037;-77
2021/12/14 02:21:19;;;;;;;22.05;15.55;;;10.20;99.90;;;;;;5107028;28;20060;-76
2021/12/14 02:23:51;;;;;;;23.27;14.82;;;8.30;99.90;;;;;;5107118;28;20068;-76
2021/12/14 02:26:20;;;;;;;24.05;14.70;;;8.30;99.90;;;;;;5108864;27;20135;-75
2021/12/14 02:28:46;;;;;;;24.95;15.45;;;8.30;99.90;;;;;;5075749;28;20048;-75
2021/12/14 02:31:15;;;;;;;22.77;13.55;;;8.30;99.90;;;;;;5075928;28;20480;-75
2021/12/14 02:33:46;;;;;;;21.50;14.30;;;9.50;99.90;;;;;;5076573;28;20043;-76
2021/12/14 02:36:23;;;;;;;25.10;14.82;;;9.60;99.90;;;;;;5075938;28;20544;-75
2021/12/14 02:38:53;;;;;;;24.63;16.67;;;7.90;99.90;;;;;;5059657;28;20040;-75
2021/12/14 02:41:19;;;;;;;30.33;16.40;;;8.50;99.90;;;;;;5091645;28;20047;-75
2021/12/14 02:43:55;;;;;;;20.98;14.45;;;8.30;99.90;;;;;;5110024;28;20052;-75
2021/12/14 02:46:25;;;;;;;21.35;15.05;;;8.30;99.90;;;;;;5076298;28;20044;-75
2021/12/14 02:48:58;;;;;;;25.33;15.80;;;8.30;99.90;;;;;;5074941;28;20547;-75
2021/12/14 02:51:31;;;;;;;23.17;15.65;;;8.70;99.90;;;;;;5076919;28;20047;-75
2021/12/14 02:54:05;;;;;;;24.25;16.52;;;8.30;99.90;;;;;;5084479;28;20035;-76
2021/12/14 02:56:33;;;;;;;25.90;17.00;;;8.60;99.90;;;;;;5072643;28;20063;-77
2021/12/14 02:59:03;;;;;;;25.98;16.95;;;10.20;99.90;;;;;;5075564;28;20032;-76
2021/12/14 03:01:31;;;;;;;23.85;15.70;;;10.70;99.90;;;;;;5075896;28;20044;-76
2021/12/14 03:04:05;;;;;;;23.65;16.83;;;8.20;99.90;;;;;;5075521;28;20036;-75
2021/12/14 03:06:36;;;;;;;23.58;16.15;;;8.20;99.90;;;;;;5076069;28;20036;-76
2021/12/14 03:09:15;;;;;;;24.63;16.77;;;9.90;99.90;;;;;;5075257;28;20040;-77
2021/12/14 03:11:41;;;;;;;25.85;16.65;;;10.10;99.90;;;;;;5095734;28;20071;-76
2021/12/14 03:14:08;;;;;;;26.13;17.35;;;8.20;99.90;;;;;;5078513;28;20553;-76
2021/12/14 03:16:36;;;;;;;27.30;17.63;;;8.20;99.90;;;;;;5095889;28;20039;-76
2021/12/14 03:19:06;;;;;;;24.95;16.50;;;8.20;99.90;;;;;;5095210;28;20040;-76
2021/12/14 03:21:39;;;;;;;26.27;17.25;;;8.20;99.90;;;;;;5095721;28;20480;-76
2021/12/14 03:24:12;;;;;;;25.02;18.48;;;8.00;99.90;;;;;;5094907;28;20078;-76
2021/12/14 03:26:42;;;;;;;26.75;17.92;;;8.20;99.90;;;;;;5075447;28;20056;-76
2021/12/14 03:29:17;;;;;;;28.88;19.27;;;8.20;99.90;;;;;;5075030;28;20123;-76
2021/12/14 03:31:44;;;;;;;;;;;8.20;99.90;;;;;;5075792;28;20483;-76
2021/12/14 03:34:15;;;;;;;28.90;20.38;;;8.20;99.90;;;;;;5091676;28;20441;-76
2021/12/14 03:37:03;;;;;;;28.08;18.40;;;8.20;99.90;;;;;;5109423;28;20087;-77
2021/12/14 03:39:50;;;;;;;28.10;19.38;;;11.20;99.90;;;;;;5114449;27;20119;-76
2021/12/14 03:42:25;;;;;;;27.15;17.48;;;8.80;99.90;;;;;;5078625;28;20047;-76
2021/12/14 03:44:54;;;;;;;28.75;18.55;;;8.20;99.90;;;;;;5078151;28;20084;-76
2021/12/14 03:47:26;;;;;;;28.05;19.10;;;8.80;99.90;;;;;;5095011;28;20038;-76
2021/12/14 03:50:08;;;;;;;27.77;19.05;;;8.30;99.90;;;;;;5078664;28;20382;-76
2021/12/14 03:52:37;;;;;;;28.52;18.42;;;8.30;99.90;;;;;;5077981;28;20395;-76
2021/12/14 03:55:24;;;;;;;30.33;19.27;;;8.80;99.90;;;;;;5094062;28;20126;-75
2021/12/14 03:57:50;;;;;;;33.53;22.08;;;8.20;99.90;;;;;;5094942;28;20050;-75
2021/12/14 04:00:41;;;;;;;34.03;19.92;;;9.50;99.90;;;;;;5058733;28;20042;-76
2021/12/14 04:03:11;;;;;;;32.08;19.73;;;8.20;99.90;;;;;;5057580;28;20040;-76
2021/12/14 04:05:41;;;;;;;35.28;22.15;;;8.20;99.90;;;;;;5074698;28;20496;-75
2021/12/14 04:08:08;;;;;;;34.10;21.27;;;10.90;99.90;;;;;;5073715;28;20044;-75
2021/12/14 04:10:37;;;;;;;32.85;21.08;;;8.20;99.90;;;;;;5088699;28;20051;-75
2021/12/14 04:13:04;;;;;;;33.10;20.17;;;8.20;99.90;;;;;;5091115;28;20032;-75
2021/12/14 04:15:31;;;;;;;34.42;20.90;;;8.10;99.90;;;;;;5082956;28;20040;-75
2021/12/14 04:17:57;;;;;;;36.33;22.17;;;8.10;99.90;;;;;;5077593;28;20480;-75
2021/12/14 04:20:31;;;;;;;36.17;22.20;;;10.90;99.90;;;;;;5094579;28;20126;-75
2021/12/14 04:22:57;;;;;;;34.75;20.88;;;8.20;99.90;;;;;;5094057;28;20067;-76
2021/12/14 04:25:27;;;;;;;33.58;21.45;;;5.70;99.90;;;;;;5094771;28;20122;-75
2021/12/14 04:27:55;;;;;;;30.80;20.52;;;8.90;99.90;;;;;;5077178;28;20387;-75
2021/12/14 04:30:23;;;;;;;36.95;22.45;;;8.30;99.90;;;;;;5094135;28;20038;-75
2021/12/14 04:32:52;;;;;;;35.22;21.00;;;8.00;99.90;;;;;;5094465;28;20168;-75
2021/12/14 04:35:19;;;;;;;33.17;20.95;;;;;;;;;;5093868;28;20039;-75
2021/12/14 04:37:50;;;;;;;36.28;21.98;;;8.20;99.90;;;;;;5094682;28;20043;-75
2021/12/14 04:51:59;;;;;;;38.95;25.50;;;10.30;99.90;;;;;;5094836;28;20389;-76
2021/12/14 04:54:27;;;;;;;;;;;8.10;99.90;;;;;;5126388;28;20066;-76
2021/12/14 04:56:53;;;;;;;43.10;26.80;;;8.10;99.90;;;;;;5128030;28;19963;-76
2021/12/14 04:59:24;;;;;;;39.15;25.42;;;9.10;99.90;;;;;;5093905;28;20043;-76
2021/12/14 05:01:52;;;;;;;44.95;25.67;;;9.10;99.90;;;;;;5094002;28;20050;-75
2021/12/14 05:04:21;;;;;;;42.03;25.52;;;8.10;99.90;;;;;;5095506;28;20048;-76
2021/12/14 05:06:54;;;;;;;43.78;25.73;;;8.10;99.90;;;;;;5096808;28;20039;-75
2021/12/14 05:09:31;;;;;;;37.13;23.55;;;9.20;99.90;;;;;;5113525;28;20463;-76
2021/12/14 05:12:09;;;;;;;39.40;25.92;;;8.10;99.90;;;;;;5097863;28;20540;-75
2021/12/14 05:14:39;;;;;;;38.58;22.85;;;8.10;99.90;;;;;;5098262;28;20043;-75
2021/12/14 05:17:09;;;;;;;43.88;26.75;;;8.00;99.90;;;;;;5097871;28;20392;-76
2021/12/14 05:19:37;;;;;;;37.80;25.67;;;8.40;99.90;;;;;;5081408;28;20031;-76
2021/12/14 05:22:16;;;;;;;39.45;25.27;;;8.00;99.90;;;;;;5097555;28;20388;-76
2021/12/14 05:24:47;;;;;;;41.25;26.17;;;8.10;99.90;;;;;;5098279;28;20515;-76
2021/12/14 05:27:18;;;;;;;40.72;24.45;;;11.10;99.90;;;;;;5097111;28;20052;-76
2021/12/14 05:29:45;;;;;;;39.75;26.17;;;8.40;99.90;;;;;;5081379;28;20067;-80
2021/12/14 05:32:15;;;;;;;42.58;25.25;;;8.00;99.90;;;;;;5097234;28;20039;-77
2021/12/14 05:34:42;;;;;;;38.50;23.80;;;8.10;99.90;;;;;;5098219;28;20104;-78
2021/12/14 05:37:08;;;;;;;40.80;25.23;;;8.10;99.90;;;;;;5080529;28;20130;-78
2021/12/14 05:44:33;;;;;;;38.55;25.63;;;8.10;99.90;;;;;;5097320;28;20079;-77
2021/12/14 05:47:03;;;;;;;42.70;28.35;;;8.20;99.90;;;;;;5096753;28;20046;-76
2021/12/14 05:49:29;;;;;;;39.08;24.63;;;8.10;99.90;;;;;;5097608;28;20044;-77
2021/12/14 05:51:58;;;;;;;42.90;28.33;;;7.70;99.90;;;;;;5096221;28;20035;-76
2021/12/14 05:54:27;;;;;;;44.55;27.80;;;8.10;99.90;;;;;;5080478;28;20034;-76
2021/12/14 05:56:55;;;;;;;47.92;29.10;;;8.10;99.90;;;;;;5080011;28;20044;-77
2021/12/14 05:59:27;;;;;;;44.80;27.02;;;8.00;99.90;;;;;;5096267;28;20036;-77
2021/12/14 06:01:55;;;;;;;51.60;31.15;;;8.20;99.90;;;;;;5097092;28;20050;-77
2021/12/14 06:04:24;;;;;;;49.17;28.42;;;10.20;99.90;;;;;;5097108;28;20051;-77
2021/12/14 06:06:54;;;;;;;47.17;29.17;;;8.20;99.90;;;;;;5096769;28;20043;-76
2021/12/14 06:09:28;;;;;;;47.03;31.00;;;8.00;99.90;;;;;;5096717;28;20046;-77
2021/12/14 06:12:13;;;;;;;49.40;30.17;;;8.10;99.90;;;;;;5080018;28;20079;-77
2021/12/14 06:14:49;;;;;;;48.65;31.48;;;8.10;99.90;;;;;;5096996;28;20042;-77
2021/12/14 06:17:19;;;;;;;53.60;31.95;;;8.00;99.90;;;;;;5079458;28;20073;-76
2021/12/14 06:19:50;;;;;;;51.17;29.98;;;9.00;99.90;;;;;;5080114;28;20511;-76
2021/12/14 06:22:19;;;;;;;50.55;32.22;;;7.80;99.90;;;;;;5096450;28;20059;-76
2021/12/14 06:24:53;;;;;;;53.33;34.42;;;9.10;99.90;;;;;;5097034;28;20044;-76
2021/12/14 06:27:21;;;;;;;51.33;32.97;;;8.00;99.90;;;;;;5096010;28;20056;-75
2021/12/14 06:30:18;;;;;;;53.05;33.25;;;8.00;99.90;;;;;;5079862;28;20039;-76
2021/12/14 06:32:57;;;;;;;52.17;32.88;;;8.00;99.90;;;;;;5083412;28;20054;-77
2021/12/14 06:35:29;;;;;;;53.03;33.63;;;8.00;99.90;;;;;;5096395;28;20043;-76
2021/12/14 06:40:45;;;;;;;57.47;34.10;;;8.00;99.90;;;;;;5096074;28;20062;-76
2021/12/14 06:43:18;;;;;;;55.03;32.65;;;8.90;99.90;;;;;;5096495;28;20047;-76
2021/12/14 06:45:47;;;;;;;56.05;34.97;;;8.00;99.90;;;;;;5096312;28;20164;-75
2021/12/14 06:48:20;;;;;;;59.63;35.55;;;8.00;99.90;;;;;;5095368;28;20036;-74
2021/12/14 06:51:12;;;;;;;58.60;36.30;;;8.00;99.90;;;;;;5079591;28;20086;-77
2021/12/14 06:53:39;;;;;;;63.13;37.78;;;8.00;99.90;;;;;;5095822;28;20111;-76
2021/12/14 06:56:11;;;;;;;59.95;35.17;;;7.90;99.90;;;;;;5061061;28;20044;-76
2021/12/14 06:58:52;;;;;;;57.45;33.85;;;7.90;99.90;;;;;;5096294;28;20047;-74
2021/12/14 07:01:29;;;;;;;56.50;33.20;;;8.00;99.90;;;;;;5078940;28;20488;-74
2021/12/14 07:04:08;;;;;;;59.25;33.78;;;8.00;99.90;;;;;;5095212;28;20045;-75
2021/12/14 07:06:45;;;;;;;61.70;37.15;;;8.00;99.90;;;;;;5096406;28;20422;-75
2021/12/14 07:09:21;;;;;;;57.00;34.85;;;8.80;99.90;;;;;;5095213;28;20046;-74
2021/12/14 07:11:58;;;;;;;62.05;37.50;;;8.00;99.90;;;;;;5087380;28;20485;-74
2021/12/14 07:14:27;;;;;;;52.55;32.33;;;8.00;99.90;;;;;;5075782;28;20047;-75
2021/12/14 07:16:55;;;;;;;64.60;36.70;;;8.00;99.90;;;;;;5091113;28;20040;-74
2021/12/14 07:19:41;;;;;;;69.75;38.35;;;10.60;99.90;;;;;;5095615;28;20130;-74
2021/12/14 07:22:11;;;;;;;60.75;36.90;;;8.00;99.90;;;;;;5078500;28;20423;-74
2021/12/14 07:24:37;;;;;;;62.97;37.15;;;7.90;99.90;;;;;;5094884;28;20061;-74
2021/12/14 07:27:17;;;;;;;63.13;37.05;;;8.30;99.90;;;;;;5094385;28;20048;-75
2021/12/14 07:29:43;;;;;;;63.15;36.25;;;8.00;99.90;;;;;;5093913;28;20067;-75
2021/12/14 07:32:09;;;;;;;71.35;39.20;;;8.30;99.90;;;;;;5128823;27;20070;-75
2021/12/14 07:34:35;;;;;;;63.90;38.00;;;10.20;99.90;;;;;;5095468;28;20039;-76
2021/12/14 07:37:01;;;;;;;66.70;39.80;;;8.60;99.90;;;;;;5077461;28;20084;-76
2021/12/14 07:39:26;;;;;;;68.20;37.90;;;9.50;99.90;;;;;;5095996;28;20084;-75
2021/12/14 07:41:55;;;;;;;66.30;38.50;;;8.20;99.90;;;;;;5095374;28;20477;-77
2021/12/14 07:44:34;;;;;;;59.88;36.80;;;8.00;99.90;;;;;;5095232;28;20096;-77
2021/12/14 07:47:09;;;;;;;69.47;39.75;;;8.00;99.90;;;;;;5094887;28;20051;-78
2021/12/14 07:49:43;;;;;;;69.55;39.80;;;9.10;99.90;;;;;;5095326;28;20039;-77
2021/12/14 07:52:09;;;;;;;71.88;40.03;;;10.20;99.90;;;;;;5094515;28;20122;-77
2021/12/14 07:54:48;;;;;;;76.85;41.30;;;8.00;99.90;;;;;;5078291;28;20126;-77
2021/12/14 07:57:29;;;;;;;70.40;39.88;;;8.00;99.90;;;;;;5094625;28;20114;-78
2021/12/14 08:00:05;;;;;;;69.95;40.67;;;8.40;99.90;;;;;;5094627;28;20078;-78
2021/12/14 08:02:37;;;;;;;66.13;38.00;;;8.10;99.90;;;;;;5094876;28;20430;-78
2021/12/14 08:05:28;;;;;;;64.75;36.65;;;8.30;99.90;;;;;;5094356;28;20507;-80
2021/12/14 08:07:54;;;;;;;71.80;39.13;;;8.10;99.90;;;;;;5077901;28;20075;-79
2021/12/14 08:10:30;;;;;;;66.18;37.50;;;8.00;99.90;;;;;;5077977;28;20117;-77
2021/12/14 08:13:11;;;;;;;67.43;40.08;;;8.10;99.90;;;;;;5075742;28;20047;-77
2021/12/14 08:15:51;;;;;;;63.83;38.33;;;8.00;99.90;;;;;;5074728;28;20076;-77
2021/12/14 08:18:30;;;;;;;81.43;41.13;;;8.10;99.90;;;;;;5092902;28;20039;-77
2021/12/14 08:21:07;;;;;;;64.88;36.55;;;8.20;99.90;;;;;;5094298;28;20040;-77
2021/12/14 08:23:32;;;;;;;77.25;41.33;;;8.00;99.90;;;;;;5094773;28;20048;-77
2021/12/14 08:26:14;;;;;;;70.05;42.97;;;10.10;99.90;;;;;;5094202;28;20093;-77
2021/12/14 08:29:00;;;;;;;74.20;41.03;;;8.00;99.90;;;;;;5094617;28;20051;-77
2021/12/14 08:31:34;;;;;;;83.22;42.08;;;8.10;99.90;;;;;;5094704;28;20039;-77
2021/12/14 08:34:04;;;;;;;75.40;39.38;;;9.50;99.90;;;;;;5094060;28;20040;-77
2021/12/14 08:36:59;;;;;;;76.80;43.10;;;11.00;99.90;;;;;;5077849;28;20044;-77
2021/12/14 08:39:32;;;;;;;74.85;41.35;;;8.10;99.90;;;;;;5089077;28;20048;-76
2021/12/14 08:42:09;;;;;;;68.38;38.58;;;8.00;99.90;;;;;;5076327;28;20396;-76
2021/12/14 08:44:38;;;;;;;80.32;44.75;;;8.10;99.90;;;;;;5077976;28;20062;-76
2021/12/14 08:47:11;;;;;;;63.72;36.85;;;8.20;99.90;;;;;;5109066;28;20036;-76
2021/12/14 08:49:39;;;;;;;71.05;40.72;;;8.10;99.90;;;;;;5094736;28;20426;-76
2021/12/14 08:52:06;;;;;;;66.78;38.10;;;7.90;99.90;;;;;;5094048;28;20082;-77
2021/12/14 08:54:34;;;;;;;74.93;40.25;;;8.20;99.90;;;;;;5094817;28;20039;-77
2021/12/14 08:57:05;;;;;;;80.57;41.50;;;8.10;99.90;;;;;;5093085;28;20085;-74
2021/12/14 08:59:32;;;;;;;68.30;36.53;;;8.00;99.90;;;;;;5077424;28;20039;-75
2021/12/14 09:02:00;;;;;;;70.15;38.70;;;8.40;99.90;;;;;;5093367;28;20050;-76
2021/12/14 09:04:37;;;;;;;80.07;42.03;;;8.10;99.90;;;;;;5077518;28;20455;-78
2021/12/14 09:07:10;;;;;;;78.78;39.30;;;8.20;99.90;;;;;;5064678;28;20073;-75
2021/12/14 09:09:38;;;;;;;69.57;37.55;;;8.10;99.90;;;;;;5092375;28;20039;-74
2021/12/14 09:12:27;;;;;;;66.82;35.88;;;8.20;99.90;;;;;;5091596;28;20047;-74
2021/12/14 09:15:00;;;;;;;74.97;38.28;;;8.50;99.90;;;;;;5071963;28;20101;-84
2021/12/14 09:17:26;;;;;;;74.07;39.00;;;8.00;99.90;;;;;;5092545;28;20436;-74
2021/12/14 09:20:03;;;;;;;95.10;46.22;;;8.30;99.90;;;;;;5075392;28;20118;-72
2021/12/14 09:22:41;;;;;;;82.32;40.17;;;8.30;99.90;;;;;;5125939;28;20062;-81
2021/12/14 09:25:10;;;;;;;74.55;38.75;;;8.20;99.90;;;;;;5074392;28;20035;-82
2021/12/14 09:27:37;;;;;;;74.65;37.60;;;;;;;;;;5077317;28;20043;-81
2021/12/14 09:30:05;;;;;;;78.10;38.95;;;8.60;99.90;;;;;;5076268;28;20042;-78
2021/12/14 09:32:33;;;;;;;72.60;36.67;;;9.10;99.90;;;;;;5093780;28;20039;-83
2021/12/14 09:35:01;;;;;;;69.18;36.08;;;8.50;99.90;;;;;;5093067;28;20035;-77
2021/12/14 09:37:28;;;;;;;75.47;40.40;;;8.40;99.90;;;;;;5090847;28;20479;-83
2021/12/14 09:39:57;;;;;;;63.17;35.90;;;8.10;99.90;;;;;;5063669;28;20131;-73
2021/12/14 09:42:28;;;;;;;73.15;38.72;;;8.40;99.90;;;;;;5091004;28;20570;-71
2021/12/14 09:44:57;;;;;;;73.65;40.28;;;8.30;99.90;;;;;;5090850;28;20039;-71
2021/12/14 09:47:31;;;;;;;71.43;37.95;;;8.30;99.90;;;;;;5074859;28;20036;-78
2021/12/14 09:50:03;;;;;;;65.47;36.60;;;8.90;99.90;;;;;;5092655;28;20050;-76
2021/12/14 09:52:33;;;;;;;66.95;35.78;;;8.30;99.90;;;;;;5079339;28;20054;-76
2021/12/14 09:55:02;;;;;;;60.75;34.75;;;8.50;99.90;;;;;;5095545;28;20039;-74
2021/12/14 09:57:38;;;;;;;72.28;36.90;;;8.30;99.90;;;;;;5091462;28;20055;-73
2021/12/14 10:00:20;;;;;;;63.90;33.97;;;8.40;99.90;;;;;;5091920;28;20035;-75
2021/12/14 10:02:48;;;;;;;65.60;36.13;;;8.50;99.90;;;;;;5096448;28;20432;-75
2021/12/14 10:05:21;;;;;;;65.57;36.63;;;8.20;99.90;;;;;;5096320;28;20131;-77
2021/12/14 10:07:48;;;;;;;65.28;34.38;;;8.40;99.90;;;;;;5110654;28;20779;-78
2021/12/14 10:10:18;;;;;;;74.93;38.83;;;8.40;99.90;;;;;;5076377;28;20138;-77
2021/12/14 10:12:51;;;;;;;67.88;36.72;;;8.70;99.90;;;;;;5076645;28;20044;-78
2021/12/14 10:15:33;;;;;;;74.65;38.60;;;8.10;99.90;;;;;;5072816;28;20089;-77
2021/12/14 10:18:07;;;;;;;80.32;39.58;;;8.50;99.90;;;;;;5078347;28;20381;-77
2021/12/14 10:20:58;;;;;;;68.43;36.33;;;8.30;99.90;;;;;;5079384;28;20043;-79
2021/12/14 10:23:24;;;;;;;76.38;38.42;;;8.50;99.90;;;;;;5096115;28;20051;-76
2021/12/14 10:25:51;;;;;;;65.90;36.60;;;8.30;99.90;;;;;;5093855;28;20058;-76
2021/12/14 10:28:17;;;;;;;63.63;34.42;;;8.40;99.90;;;;;;5078369;28;20512;-79
2021/12/14 10:30:56;;;;;;;66.45;34.67;;;8.60;99.90;;;;;;5095904;28;20043;-82
2021/12/14 10:33:24;;;;;;;60.80;32.25;;;8.50;99.90;;;;;;5095734;28;20381;-80
2021/12/14 10:35:55;;;;;;;81.55;40.65;;;8.50;99.90;;;;;;5095948;28;20047;-82
2021/12/14 10:38:34;;;;;;;62.05;31.88;;;8.60;99.90;;;;;;5078629;28;20040;-75
2021/12/14 10:43:44;;;;;;;69.07;34.67;;;8.90;99.90;;;;;;5094369;28;20064;-72
2021/12/14 10:46:16;;;;;;;56.63;32.13;;;8.80;99.90;;;;;;5093782;28;20077;-71
2021/12/14 10:48:45;;;;;;;53.90;30.42;;;8.70;99.90;;;;;;5092956;28;20043;-74
2021/12/14 10:51:13;;;;;;;52.22;28.30;;;8.40;99.90;;;;;;5093146;28;20507;-74
2021/12/14 10:53:45;;;;;;;61.00;33.13;;;8.70;99.90;;;;;;5094497;28;20039;-77
2021/12/14 10:56:15;;;;;;;50.92;28.17;;;8.70;99.90;;;;;;5096105;28;20055;-77
2021/12/14 10:58:43;;;;;;;49.30;27.90;;;9.00;99.90;;;;;;5094648;28;20092;-77
2021/12/14 11:01:18;;;;;;;53.75;29.95;;;9.00;99.90;;;;;;5085241;28;20032;-74
2021/12/14 11:03:49;;;;;;;55.53;28.42;;;8.70;99.90;;;;;;5092645;28;20148;-78
2021/12/14 11:06:22;;;;;;;45.53;26.50;;;8.60;99.90;;;;;;5095641;28;20431;-82
2021/12/14 11:09:02;;;;;;;41.40;24.90;;;8.90;99.90;;;;;;5084037;28;20489;-78
2021/12/14 11:11:36;;;;;;;53.53;26.48;;;8.80;99.90;;;;;;5087493;28;20036;-78
2021/12/14 11:14:06;;;;;;;38.92;24.05;;;9.10;99.90;;;;;;5075394;28;20146;-75
2021/12/14 11:19:43;;;;;;;35.75;21.65;;;9.00;99.90;;;;;;5095890;28;20126;-76
2021/12/14 11:22:14;;;;;;;50.22;25.55;;;8.80;99.90;;;;;;5095045;28;20127;-77
2021/12/14 11:24:42;;;;;;;38.92;23.30;;;8.70;99.90;;;;;;5095752;28;20052;-79
2021/12/14 11:27:23;;;;;;;39.05;22.10;;;9.20;99.90;;;;;;5092352;28;20100;-77
2021/12/14 11:30:15;;;;;;;51.60;24.80;;;8.80;99.90;;;;;;5078088;28;20049;-75
2021/12/14 11:32:43;;;;;;;45.97;24.45;;;8.90;99.90;;;;;;5095533;28;20487;-77
2021/12/14 11:35:19;;;;;;;34.70;21.30;;;8.70;99.90;;;;;;5094965;28;20039;-77
2021/12/14 11:37:45;;;;;;;40.58;22.63;;;9.20;99.90;;;;;;5095537;28;20134;-77
2021/12/14 11:40:11;;;;;;;38.97;22.52;;;8.60;99.90;;;;;;5095293;28;20479;-78
2021/12/14 11:42:37;;;;;;;43.17;22.63;;;8.60;99.90;;;;;;5095686;28;20047;-78
2021/12/14 11:45:16;;;;;;;37.63;20.15;;;10.10;99.90;;;;;;5094929;28;20077;-78
2021/12/14 11:47:57;;;;;;;35.38;20.75;;;8.90;99.90;;;;;;5078273;28;20035;-78
2021/12/14 11:50:23;;;;;;;38.55;21.10;;;11.10;99.90;;;;;;5094706;28;20511;-78
2021/12/14 11:53:14;;;;;;;32.30;19.20;;;9.00;99.90;;;;;;5129139;27;20040;-78
2021/12/14 11:56:05;;;;;;;34.25;17.67;;;9.00;99.90;;;;;;5116777;27;20132;-83
2021/12/14 11:58:36;;;;;;;33.47;18.17;;;8.90;99.90;;;;;;5094180;28;20051;-80
2021/12/14 12:01:10;;;;;;;29.58;17.60;;;9.20;99.90;;;;;;5094687;28;20039;-80
2021/12/14 12:03:45;;;;;;;27.10;16.98;;;9.00;99.90;;;;;;5095108;28;20492;-75
2021/12/14 12:11:55;;;;;;;30.13;16.92;;;8.80;99.90;;;;;;5091285;28;20067;-74
2021/12/14 12:14:44;;;;;;;41.42;17.70;;;9.20;99.90;;;;;;5074028;28;20543;-75
2021/12/14 12:17:16;;;;;;;32.97;17.20;;;9.10;99.90;;;;;;5091569;28;20411;-78
2021/12/14 12:20:09;;;;;;;27.27;16.15;;;9.20;99.90;;;;;;5128772;27;20035;-79
2021/12/14 12:22:40;;;;;;;31.52;18.25;;;9.10;99.90;;;;;;5094101;28;20036;-78
2021/12/14 12:25:33;;;;;;;28.40;15.45;;;9.50;99.90;;;;;;5077028;28;20047;-81
2021/12/14 12:28:02;;;;;;;26.88;15.98;;;9.20;99.90;;;;;;5073659;28;20052;-81
2021/12/14 12:30:35;;;;;;;29.30;17.05;;;10.00;99.90;;;;;;5057398;28;20097;-76
2021/12/14 12:33:28;;;;;;;31.30;18.88;;;10.40;99.90;;;;;;5052623;28;20045;-75
2021/12/14 12:35:53;;;;;;;25.70;15.27;;;9.50;99.90;;;;;;5067375;28;20462;-75
2021/12/14 12:38:57;;;;;;;35.28;18.90;;;9.20;99.90;;;;;;5062738;28;20056;-75
2021/12/14 12:41:44;;;;;;;30.60;16.52;;;9.20;99.90;;;;;;5064782;28;20084;-79
2021/12/14 12:44:15;;;;;;;34.03;17.92;;;9.20;99.90;;;;;;5075155;28;20055;-82
2021/12/14 12:46:41;;;;;;;33.17;16.58;;;9.10;99.90;;;;;;5073234;28;20044;-83
2021/12/14 12:49:25;;;;;;;28.42;16.08;;;11.00;99.90;;;;;;5073285;28;20401;-80
2021/12/14 12:52:37;;;;;;;29.05;16.40;;;10.70;99.90;;;;;;5090833;28;20520;-80
2021/12/14 12:55:17;;;;;;;32.58;17.50;;;9.30;99.90;;;;;;5058047;28;20501;-80
2021/12/14 12:58:15;;;;;;;30.40;17.08;;;10.10;99.90;;;;;;5056237;28;20064;-80
2021/12/14 13:00:46;;;;;;;31.50;16.45;;;9.30;99.90;;;;;;5070008;28;20047;-79
2021/12/14 13:03:14;;;;;;;29.02;17.52;;;9.30;99.90;;;;;;5053560;28;20106;-80
2021/12/14 13:05:55;;;;;;;33.33;16.85;;;9.30;99.90;;;;;;5054245;28;20401;-80
2021/12/14 13:09:00;;;;;;;23.40;13.77;;;9.30;99.90;;;;;;5069532;28;20048;-79
2021/12/14 13:11:35;;;;;;;27.90;16.08;;;9.80;99.90;;;;;;5012950;28;20044;-79
2021/12/14 13:14:12;;;;;;;24.45;14.25;;;9.30;99.90;;;;;;5008329;28;20476;-80
2021/12/14 13:16:45;;;;;;;28.40;13.77;;;9.30;99.90;;;;;;5035556;28;20044;-81
2021/12/14 13:19:31;;;;;;;31.58;15.43;;;11.40;99.90;;;;;;5070383;28;20389;-79
2021/12/14 13:22:04;;;;;;;26.13;15.55;;;12.20;99.90;;;;;;5068193;28;20523;-81
2021/12/14 13:24:40;;;;;;;21.98;13.68;;;9.40;99.90;;;;;;5078382;28;20044;-81
2021/12/14 13:27:10;;;;;;;28.42;15.02;;;9.80;99.90;;;;;;5048784;28;20056;-81
2021/12/14 13:29:50;;;;;;;28.90;14.80;;;12.00;99.90;;;;;;5093682;28;20040;-80
2021/12/14 13:32:33;;;;;;;35.03;16.42;;;9.40;99.90;;;;;;5094273;28;20484;-81
2021/12/14 13:35:18;;;;;;;31.25;15.88;;;9.50;99.90;;;;;;5067369;28;20044;-80
2021/12/14 13:37:57;;;;;;;26.52;13.63;;;9.80;99.90;;;;;;5073642;28;20047;-81
2021/12/14 13:40:28;;;;;;;23.75;12.75;;;9.50;99.90;;;;;;5074181;28;20429;-81
2021/12/14 13:43:11;;;;;;;28.10;13.43;;;9.50;99.90;;;;;;5078784;28;20106;-78